Terminal Aerodrome Forecast
Issued by NWS

Home | Current Version | Previous Version | Text Only | Print | Product List | Glossary On
Versions: 1 2 3 4 5 6 7 8 9 10 11 12 13 14 15
000
FTUS43 KDVN 281132
TAFBRL
TAF
KBRL 281132Z 2812/2912 31005KT P6SM SCT100
     FM281500 34007KT P6SM BKN035
     FM290500 32003KT 3SM BR OVC009
      TEMPO 2908/2912 1SM BR OVC005=

USA.gov is the U.S. government's official web portal to all federal, state and local government web resources and services.